Norwood, Virginia
Current Conditions -  °F | °C
As of 11:35 AM on Sunday 21 Dec 2014 (Local Time) from KFVX Reporting Station
Overcast Overcast  
Wind Chill: 46°   Ceiling: 6500
Heat Index: 46°   Visibility: 10mi
Dew Point: 30°   Wind: 3mph
Humidity: 54%   Direction: 70°ENE
Pressure: 30.32"   Gusts: NA
Location:  37.64°N, 78.81°W
Report Text: KFVX 211635Z AUTO 07003KT 10SM OVC065 08/M01 A3032 RMK AO2 T00751012
Loading
Personal Weather Stations






























Interactive Weather Map New forecast layout! Learn more

10-Day Weather Forecast

Advertisements
Track Severe Weather on mobile